sensor_id;sensor_type;location;lat;lon;timestamp;P1;durP1;ratioP1;P2;durP2;ratioP2
1460;SDS011;724;49.910;12.530;2024-01-10T00:00:20;12.10;;;11.50;;
1460;SDS011;724;49.910;12.530;2024-01-10T00:02:47;12.65;;;11.98;;
1460;SDS011;724;49.910;12.530;2024-01-10T00:05:14;12.25;;;11.65;;
1460;SDS011;724;49.910;12.530;2024-01-10T00:07:41;12.00;;;11.40;;
1460;SDS011;724;49.910;12.530;2024-01-10T00:10:07;12.70;;;12.00;;
1460;SDS011;724;49.910;12.530;2024-01-10T00:12:34;12.27;;;11.68;;
1460;SDS011;724;49.910;12.530;2024-01-10T00:15:04;11.95;;;11.35;;
1460;SDS011;724;49.910;12.530;2024-01-10T00:17:31;12.13;;;11.52;;
1460;SDS011;724;49.910;12.530;2024-01-10T00:19:58;12.13;;;11.52;;
1460;SDS011;724;49.910;12.530;2024-01-10T00:22:24;12.32;;;11.73;;
1460;SDS011;724;49.910;12.530;2024-01-10T00:24:51;12.45;;;11.85;;
1460;SDS011;724;49.910;12.530;2024-01-10T00:27:18;12.00;;;11.40;;
1460;SDS011;724;49.910;12.530;2024-01-10T00:29:44;12.43;;;11.82;;
1460;SDS011;724;49.910;12.530;2024-01-10T00:32:12;12.20;;;11.60;;
1460;SDS011;724;49.910;12.530;2024-01-10T00:34:39;12.20;;;11.60;;
1460;SDS011;724;49.910;12.530;2024-01-10T00:37:06;12.30;;;11.70;;
1460;SDS011;724;49.910;12.530;2024-01-10T00:39:33;12.43;;;11.82;;
1460;SDS011;724;49.910;12.530;2024-01-10T00:41:59;12.45;;;11.85;;
1460;SDS011;724;49.910;12.530;2024-01-10T00:44:26;12.18;;;11.57;;
1460;SDS011;724;49.910;12.530;2024-01-10T00:46:53;12.20;;;11.60;;
1460;SDS011;724;49.910;12.530;2024-01-10T00:49:21;11.80;;;11.20;;
1460;SDS011;724;49.910;12.530;2024-01-10T00:51:48;11.98;;;11.38;;
1460;SDS011;724;49.910;12.530;2024-01-10T00:54:15;11.55;;;10.95;;
1460;SDS011;724;49.910;12.530;2024-01-10T00:56:43;11.55;;;10.95;;
1460;SDS011;724;49.910;12.530;2024-01-10T00:59:10;11.95;;;11.35;;
1460;SDS011;724;49.910;12.530;2024-01-10T01:01:36;12.05;;;11.45;;
1460;SDS011;724;49.910;12.530;2024-01-10T01:04:03;12.07;;;11.48;;
1460;SDS011;724;49.910;12.530;2024-01-10T01:06:31;11.65;;;11.05;;
1460;SDS011;724;49.910;12.530;2024-01-10T01:08:58;12.10;;;11.50;;
1460;SDS011;724;49.910;12.530;2024-01-10T01:11:25;12.20;;;11.60;;
1460;SDS011;724;49.910;12.530;2024-01-10T01:13:51;11.35;;;10.75;;
1460;SDS011;724;49.910;12.530;2024-01-10T01:16:18;12.25;;;11.65;;
1460;SDS011;724;49.910;12.530;2024-01-10T01:18:45;11.95;;;11.35;;
1460;SDS011;724;49.910;12.530;2024-01-10T01:21:12;11.82;;;11.23;;
1460;SDS011;724;49.910;12.530;2024-01-10T01:23:40;12.40;;;11.80;;
1460;SDS011;724;49.910;12.530;2024-01-10T01:26:07;11.98;;;11.38;;
1460;SDS011;724;49.910;12.530;2024-01-10T01:28:33;11.90;;;11.30;;
1460;SDS011;724;49.910;12.530;2024-01-10T01:31:00;11.90;;;11.30;;
1460;SDS011;724;49.910;12.530;2024-01-10T01:33:27;12.02;;;11.43;;
1460;SDS011;724;49.910;12.530;2024-01-10T01:35:54;12.15;;;11.55;;
1460;SDS011;724;49.910;12.530;2024-01-10T01:38:21;12.20;;;11.60;;
1460;SDS011;724;49.910;12.530;2024-01-10T01:40:49;12.10;;;11.50;;
1460;SDS011;724;49.910;12.530;2024-01-10T01:43:19;12.80;;;12.10;;
1460;SDS011;724;49.910;12.530;2024-01-10T01:45:47;12.70;;;12.00;;
1460;SDS011;724;49.910;12.530;2024-01-10T01:48:17;12.93;;;12.23;;
1460;SDS011;724;49.910;12.530;2024-01-10T01:50:45;12.20;;;11.60;;
1460;SDS011;724;49.910;12.530;2024-01-10T01:53:13;12.32;;;11.73;;
1460;SDS011;724;49.910;12.530;2024-01-10T01:55:41;12.52;;;11.90;;
1460;SDS011;724;49.910;12.530;2024-01-10T01:58:10;12.40;;;11.80;;
1460;SDS011;724;49.910;12.530;2024-01-10T02:00:38;13.05;;;12.35;;
1460;SDS011;724;49.910;12.530;2024-01-10T02:03:05;12.80;;;12.10;;
1460;SDS011;724;49.910;12.530;2024-01-10T02:05:34;11.98;;;11.38;;
1460;SDS011;724;49.910;12.530;2024-01-10T02:08:01;12.45;;;11.85;;
1460;SDS011;724;49.910;12.530;2024-01-10T02:10:28;12.30;;;11.70;;
1460;SDS011;724;49.910;12.530;2024-01-10T02:12:55;12.25;;;11.65;;
1460;SDS011;724;49.910;12.530;2024-01-10T02:15:23;11.50;;;10.90;;
1460;SDS011;724;49.910;12.530;2024-01-10T02:17:50;11.65;;;11.05;;
1460;SDS011;724;49.910;12.530;2024-01-10T02:20:17;12.02;;;11.43;;
1460;SDS011;724;49.910;12.530;2024-01-10T02:22:45;12.23;;;11.63;;
1460;SDS011;724;49.910;12.530;2024-01-10T02:25:15;11.70;;;11.10;;
1460;SDS011;724;49.910;12.530;2024-01-10T02:27:42;12.20;;;11.60;;
1460;SDS011;724;49.910;12.530;2024-01-10T02:30:09;11.95;;;11.35;;
1460;SDS011;724;49.910;12.530;2024-01-10T02:32:36;12.35;;;11.75;;
1460;SDS011;724;49.910;12.530;2024-01-10T02:35:03;11.80;;;11.20;;
1460;SDS011;724;49.910;12.530;2024-01-10T02:37:31;11.65;;;11.05;;
1460;SDS011;724;49.910;12.530;2024-01-10T02:39:57;11.70;;;11.10;;
1460;SDS011;724;49.910;12.530;2024-01-10T02:42:25;12.55;;;11.93;;
1460;SDS011;724;49.910;12.530;2024-01-10T02:44:53;11.80;;;11.20;;
1460;SDS011;724;49.910;12.530;2024-01-10T02:47:19;12.35;;;11.75;;
1460;SDS011;724;49.910;12.530;2024-01-10T02:49:46;11.80;;;11.20;;
1460;SDS011;724;49.910;12.530;2024-01-10T02:52:13;11.57;;;10.98;;
1460;SDS011;724;49.910;12.530;2024-01-10T02:54:40;12.25;;;11.65;;
1460;SDS011;724;49.910;12.530;2024-01-10T02:57:07;11.65;;;11.05;;
1460;SDS011;724;49.910;12.530;2024-01-10T02:59:35;11.13;;;10.52;;
1460;SDS011;724;49.910;12.530;2024-01-10T03:02:02;11.75;;;11.15;;
1460;SDS011;724;49.910;12.530;2024-01-10T03:04:29;12.30;;;11.70;;
1460;SDS011;724;49.910;12.530;2024-01-10T03:06:55;12.60;;;11.95;;
1460;SDS011;724;49.910;12.530;2024-01-10T03:09:22;12.43;;;11.82;;
1460;SDS011;724;49.910;12.530;2024-01-10T03:11:49;12.70;;;12.00;;
1460;SDS011;724;49.910;12.530;2024-01-10T03:14:16;12.75;;;12.05;;
1460;SDS011;724;49.910;12.530;2024-01-10T03:16:44;12.80;;;12.10;;
1460;SDS011;724;49.910;12.530;2024-01-10T03:19:10;12.93;;;12.23;;
1460;SDS011;724;49.910;12.530;2024-01-10T03:21:37;12.70;;;12.00;;
1460;SDS011;724;49.910;12.530;2024-01-10T03:24:05;12.50;;;11.90;;
1460;SDS011;724;49.910;12.530;2024-01-10T03:26:32;12.80;;;12.10;;
1460;SDS011;724;49.910;12.530;2024-01-10T03:28:58;13.20;;;12.50;;
1460;SDS011;724;49.910;12.530;2024-01-10T03:31:26;13.00;;;12.30;;
1460;SDS011;724;49.910;12.530;2024-01-10T03:33:55;13.60;;;12.90;;
1460;SDS011;724;49.910;12.530;2024-01-10T03:36:23;12.80;;;12.10;;
1460;SDS011;724;49.910;12.530;2024-01-10T03:38:50;11.95;;;11.35;;
1460;SDS011;724;49.910;12.530;2024-01-10T03:41:17;12.60;;;11.95;;
1460;SDS011;724;49.910;12.530;2024-01-10T03:43:45;12.23;;;11.63;;
1460;SDS011;724;49.910;12.530;2024-01-10T03:46:12;12.90;;;12.20;;
1460;SDS011;724;49.910;12.530;2024-01-10T03:48:40;12.35;;;11.75;;
1460;SDS011;724;49.910;12.530;2024-01-10T03:51:14;12.60;;;11.95;;
1460;SDS011;724;49.910;12.530;2024-01-10T03:53:41;13.30;;;12.60;;
1460;SDS011;724;49.910;12.530;2024-01-10T03:56:08;13.20;;;12.50;;
1460;SDS011;724;49.910;12.530;2024-01-10T03:58:35;13.32;;;12.63;;
1460;SDS011;724;49.910;12.530;2024-01-10T04:01:03;13.10;;;12.40;;
1460;SDS011;724;49.910;12.530;2024-01-10T04:03:31;13.68;;;12.98;;
1460;SDS011;724;49.910;12.530;2024-01-10T04:05:57;13.13;;;12.43;;
1460;SDS011;724;49.910;12.530;2024-01-10T04:08:26;13.25;;;12.55;;
1460;SDS011;724;49.910;12.530;2024-01-10T04:10:52;13.27;;;12.57;;
1460;SDS011;724;49.910;12.530;2024-01-10T04:13:19;12.90;;;12.20;;
1460;SDS011;724;49.910;12.530;2024-01-10T04:15:46;13.60;;;12.90;;
1460;SDS011;724;49.910;12.530;2024-01-10T04:18:13;13.35;;;12.65;;
1460;SDS011;724;49.910;12.530;2024-01-10T04:20:40;13.52;;;12.82;;
1460;SDS011;724;49.910;12.530;2024-01-10T04:23:07;13.10;;;12.40;;
1460;SDS011;724;49.910;12.530;2024-01-10T04:25:35;13.52;;;12.82;;
1460;SDS011;724;49.910;12.530;2024-01-10T04:28:02;13.20;;;12.50;;
1460;SDS011;724;49.910;12.530;2024-01-10T04:30:29;13.20;;;12.50;;
1460;SDS011;724;49.910;12.530;2024-01-10T04:32:56;12.52;;;11.90;;
1460;SDS011;724;49.910;12.530;2024-01-10T04:35:23;13.07;;;12.38;;
1460;SDS011;724;49.910;12.530;2024-01-10T04:37:49;13.50;;;12.80;;
1460;SDS011;724;49.910;12.530;2024-01-10T04:40:16;13.55;;;12.85;;
1460;SDS011;724;49.910;12.530;2024-01-10T04:42:45;13.80;;;13.10;;
1460;SDS011;724;49.910;12.530;2024-01-10T04:45:11;14.10;;;13.40;;
1460;SDS011;724;49.910;12.530;2024-01-10T04:47:38;13.30;;;12.60;;
1460;SDS011;724;49.910;12.530;2024-01-10T04:50:05;13.30;;;12.60;;
1460;SDS011;724;49.910;12.530;2024-01-10T04:52:33;12.95;;;12.25;;
1460;SDS011;724;49.910;12.530;2024-01-10T04:54:59;13.07;;;12.38;;
1460;SDS011;724;49.910;12.530;2024-01-10T04:57:27;13.10;;;12.40;;
1460;SDS011;724;49.910;12.530;2024-01-10T04:59:56;13.80;;;13.10;;
1460;SDS011;724;49.910;12.530;2024-01-10T05:02:22;13.55;;;12.85;;
1460;SDS011;724;49.910;12.530;2024-01-10T05:04:49;13.60;;;12.90;;
1460;SDS011;724;49.910;12.530;2024-01-10T05:07:16;13.55;;;12.85;;
1460;SDS011;724;49.910;12.530;2024-01-10T05:09:43;13.45;;;12.75;;
1460;SDS011;724;49.910;12.530;2024-01-10T05:12:09;13.05;;;12.35;;
1460;SDS011;724;49.910;12.530;2024-01-10T05:14:36;14.02;;;13.32;;
1460;SDS011;724;49.910;12.530;2024-01-10T05:17:06;12.95;;;12.25;;
1460;SDS011;724;49.910;12.530;2024-01-10T05:19:32;13.23;;;12.52;;
1460;SDS011;724;49.910;12.530;2024-01-10T05:21:59;12.98;;;12.27;;
1460;SDS011;724;49.910;12.530;2024-01-10T05:24:26;13.23;;;12.52;;
1460;SDS011;724;49.910;12.530;2024-01-10T05:26:53;13.10;;;12.40;;
1460;SDS011;724;49.910;12.530;2024-01-10T05:29:20;14.00;;;13.30;;
1460;SDS011;724;49.910;12.530;2024-01-10T05:31:48;13.95;;;13.25;;
1460;SDS011;724;49.910;12.530;2024-01-10T05:34:17;13.80;;;13.10;;
1460;SDS011;724;49.910;12.530;2024-01-10T05:36:44;13.15;;;12.45;;
1460;SDS011;724;49.910;12.530;2024-01-10T05:39:11;12.77;;;12.07;;
1460;SDS011;724;49.910;12.530;2024-01-10T05:41:40;13.15;;;12.45;;
1460;SDS011;724;49.910;12.530;2024-01-10T05:44:08;13.20;;;12.50;;
1460;SDS011;724;49.910;12.530;2024-01-10T05:46:35;12.30;;;11.70;;
1460;SDS011;724;49.910;12.530;2024-01-10T05:49:02;13.40;;;12.70;;
1460;SDS011;724;49.910;12.530;2024-01-10T05:51:30;12.60;;;11.95;;
1460;SDS011;724;49.910;12.530;2024-01-10T05:53:58;13.07;;;12.38;;
1460;SDS011;724;49.910;12.530;2024-01-10T05:56:24;12.10;;;11.50;;
1460;SDS011;724;49.910;12.530;2024-01-10T05:58:52;13.13;;;12.43;;
1460;SDS011;724;49.910;12.530;2024-01-10T06:01:19;12.10;;;11.50;;
1460;SDS011;724;49.910;12.530;2024-01-10T06:03:45;12.23;;;11.63;;
1460;SDS011;724;49.910;12.530;2024-01-10T06:06:12;11.93;;;11.32;;
1460;SDS011;724;49.910;12.530;2024-01-10T06:08:40;12.30;;;11.70;;
1460;SDS011;724;49.910;12.530;2024-01-10T06:11:08;11.55;;;10.95;;
1460;SDS011;724;49.910;12.530;2024-01-10T06:13:34;12.40;;;11.80;;
1460;SDS011;724;49.910;12.530;2024-01-10T06:16:02;12.70;;;12.00;;
1460;SDS011;724;49.910;12.530;2024-01-10T06:18:29;12.77;;;12.07;;
1460;SDS011;724;49.910;12.530;2024-01-10T06:20:56;12.00;;;11.40;;
1460;SDS011;724;49.910;12.530;2024-01-10T06:23:23;12.18;;;11.57;;
1460;SDS011;724;49.910;12.530;2024-01-10T06:25:51;12.60;;;11.95;;
1460;SDS011;724;49.910;12.530;2024-01-10T06:28:19;13.20;;;12.50;;
1460;SDS011;724;49.910;12.530;2024-01-10T06:30:46;13.57;;;12.88;;
1460;SDS011;724;49.910;12.530;2024-01-10T06:33:13;13.20;;;12.50;;
1460;SDS011;724;49.910;12.530;2024-01-10T06:35:40;12.32;;;11.73;;
1460;SDS011;724;49.910;12.530;2024-01-10T06:38:08;12.98;;;12.27;;
1460;SDS011;724;49.910;12.530;2024-01-10T06:40:35;12.93;;;12.23;;
1460;SDS011;724;49.910;12.530;2024-01-10T06:43:04;13.00;;;12.30;;
1460;SDS011;724;49.910;12.530;2024-01-10T06:45:33;12.73;;;12.02;;
1460;SDS011;724;49.910;12.530;2024-01-10T06:48:00;12.02;;;11.43;;
1460;SDS011;724;49.910;12.530;2024-01-10T06:50:28;12.40;;;11.80;;
1460;SDS011;724;49.910;12.530;2024-01-10T06:52:55;13.10;;;12.40;;
1460;SDS011;724;49.910;12.530;2024-01-10T06:55:22;13.35;;;12.65;;
1460;SDS011;724;49.910;12.530;2024-01-10T06:57:49;13.02;;;12.32;;
1460;SDS011;724;49.910;12.530;2024-01-10T07:00:19;12.80;;;12.10;;
1460;SDS011;724;49.910;12.530;2024-01-10T07:02:47;12.77;;;12.07;;
1460;SDS011;724;49.910;12.530;2024-01-10T07:05:14;12.77;;;12.07;;
1460;SDS011;724;49.910;12.530;2024-01-10T07:07:41;12.75;;;12.05;;
1460;SDS011;724;49.910;12.530;2024-01-10T07:10:09;13.00;;;12.30;;
1460;SDS011;724;49.910;12.530;2024-01-10T07:12:36;13.00;;;12.30;;
1460;SDS011;724;49.910;12.530;2024-01-10T07:15:04;13.20;;;12.50;;
1460;SDS011;724;49.910;12.530;2024-01-10T07:17:33;13.10;;;12.40;;
1460;SDS011;724;49.910;12.530;2024-01-10T07:20:00;13.50;;;12.80;;
1460;SDS011;724;49.910;12.530;2024-01-10T07:22:28;13.10;;;12.40;;
1460;SDS011;724;49.910;12.530;2024-01-10T07:24:54;13.75;;;13.05;;
1460;SDS011;724;49.910;12.530;2024-01-10T07:27:22;13.40;;;12.70;;
1460;SDS011;724;49.910;12.530;2024-01-10T07:29:49;13.65;;;12.95;;
1460;SDS011;724;49.910;12.530;2024-01-10T07:32:16;13.80;;;13.10;;
1460;SDS011;724;49.910;12.530;2024-01-10T07:34:46;13.68;;;12.98;;
1460;SDS011;724;49.910;12.530;2024-01-10T07:37:12;13.65;;;12.95;;
1460;SDS011;724;49.910;12.530;2024-01-10T07:39:41;13.75;;;13.05;;
1460;SDS011;724;49.910;12.530;2024-01-10T07:42:08;13.90;;;13.20;;
1460;SDS011;724;49.910;12.530;2024-01-10T07:44:35;13.70;;;13.00;;
1460;SDS011;724;49.910;12.530;2024-01-10T07:47:02;14.40;;;13.70;;
1460;SDS011;724;49.910;12.530;2024-01-10T07:49:29;14.35;;;13.65;;
1460;SDS011;724;49.910;12.530;2024-01-10T07:51:58;14.15;;;13.45;;
1460;SDS011;724;49.910;12.530;2024-01-10T07:54:25;14.15;;;13.45;;
1460;SDS011;724;49.910;12.530;2024-01-10T07:56:52;13.85;;;13.15;;
1460;SDS011;724;49.910;12.530;2024-01-10T07:59:19;14.43;;;13.73;;
1460;SDS011;724;49.910;12.530;2024-01-10T08:01:54;14.85;;;14.05;;
1460;SDS011;724;49.910;12.530;2024-01-10T08:04:23;14.95;;;14.15;;
1460;SDS011;724;49.910;12.530;2024-01-10T08:06:50;15.60;;;14.80;;
1460;SDS011;724;49.910;12.530;2024-01-10T08:09:18;15.25;;;14.45;;
1460;SDS011;724;49.910;12.530;2024-01-10T08:11:45;14.82;;;14.02;;
1460;SDS011;724;49.910;12.530;2024-01-10T08:14:12;14.25;;;13.55;;
1460;SDS011;724;49.910;12.530;2024-01-10T08:16:39;15.00;;;14.20;;
1460;SDS011;724;49.910;12.530;2024-01-10T08:19:05;15.20;;;14.40;;
1460;SDS011;724;49.910;12.530;2024-01-10T08:21:33;14.50;;;13.80;;
1460;SDS011;724;49.910;12.530;2024-01-10T08:24:00;15.07;;;14.27;;
1460;SDS011;724;49.910;12.530;2024-01-10T08:26:30;14.90;;;14.10;;
1460;SDS011;724;49.910;12.530;2024-01-10T08:28:57;15.18;;;14.38;;
1460;SDS011;724;49.910;12.530;2024-01-10T08:31:23;15.82;;;15.02;;
1460;SDS011;724;49.910;12.530;2024-01-10T08:33:52;15.60;;;14.80;;
1460;SDS011;724;49.910;12.530;2024-01-10T08:36:18;15.55;;;14.75;;
1460;SDS011;724;49.910;12.530;2024-01-10T08:38:46;15.30;;;14.50;;
1460;SDS011;724;49.910;12.530;2024-01-10T08:41:13;15.30;;;14.50;;
1460;SDS011;724;49.910;12.530;2024-01-10T08:43:41;15.45;;;14.65;;
1460;SDS011;724;49.910;12.530;2024-01-10T08:46:08;15.63;;;14.82;;
1460;SDS011;724;49.910;12.530;2024-01-10T08:48:36;15.73;;;14.93;;
1460;SDS011;724;49.910;12.530;2024-01-10T08:51:02;15.77;;;14.98;;
1460;SDS011;724;49.910;12.530;2024-01-10T08:53:30;15.15;;;14.35;;
1460;SDS011;724;49.910;12.530;2024-01-10T08:55:57;15.73;;;14.93;;
1460;SDS011;724;49.910;12.530;2024-01-10T08:58:24;16.33;;;15.52;;
1460;SDS011;724;49.910;12.530;2024-01-10T09:00:52;15.90;;;15.10;;
1460;SDS011;724;49.910;12.530;2024-01-10T09:03:19;15.88;;;15.07;;
1460;SDS011;724;49.910;12.530;2024-01-10T09:05:46;15.65;;;14.85;;
1460;SDS011;724;49.910;12.530;2024-01-10T09:08:13;15.35;;;14.55;;
1460;SDS011;724;49.910;12.530;2024-01-10T09:10:40;16.00;;;15.20;;
1460;SDS011;724;49.910;12.530;2024-01-10T09:13:07;15.63;;;14.82;;
1460;SDS011;724;49.910;12.530;2024-01-10T09:15:34;16.40;;;15.60;;
1460;SDS011;724;49.910;12.530;2024-01-10T09:18:02;15.60;;;14.80;;
1460;SDS011;724;49.910;12.530;2024-01-10T09:20:29;16.00;;;15.20;;
1460;SDS011;724;49.910;12.530;2024-01-10T09:22:56;16.00;;;15.20;;
1460;SDS011;724;49.910;12.530;2024-01-10T09:25:25;16.10;;;15.30;;
1460;SDS011;724;49.910;12.530;2024-01-10T09:27:52;16.27;;;15.48;;
1460;SDS011;724;49.910;12.530;2024-01-10T09:30:19;15.90;;;15.10;;
1460;SDS011;724;49.910;12.530;2024-01-10T09:32:46;15.80;;;15.00;;
1460;SDS011;724;49.910;12.530;2024-01-10T09:35:14;16.15;;;15.35;;
1460;SDS011;724;49.910;12.530;2024-01-10T09:37:42;16.10;;;15.30;;
1460;SDS011;724;49.910;12.530;2024-01-10T09:40:10;16.10;;;15.30;;
1460;SDS011;724;49.910;12.530;2024-01-10T09:42:40;16.10;;;15.30;;
1460;SDS011;724;49.910;12.530;2024-01-10T09:45:08;16.33;;;15.52;;
1460;SDS011;724;49.910;12.530;2024-01-10T09:47:38;16.20;;;15.40;;
1460;SDS011;724;49.910;12.530;2024-01-10T09:50:07;16.40;;;15.60;;
1460;SDS011;724;49.910;12.530;2024-01-10T09:52:38;16.33;;;15.52;;
1460;SDS011;724;49.910;12.530;2024-01-10T09:55:07;16.67;;;15.88;;
1460;SDS011;724;49.910;12.530;2024-01-10T09:57:35;16.98;;;16.08;;
1460;SDS011;724;49.910;12.530;2024-01-10T10:00:04;16.20;;;15.40;;
1460;SDS011;724;49.910;12.530;2024-01-10T10:02:35;16.40;;;15.60;;
1460;SDS011;724;49.910;12.530;2024-01-10T10:05:07;16.40;;;15.60;;
1460;SDS011;724;49.910;12.530;2024-01-10T10:07:47;16.10;;;15.30;;
1460;SDS011;724;49.910;12.530;2024-01-10T10:10:15;16.10;;;15.30;;
1460;SDS011;724;49.910;12.530;2024-01-10T10:12:44;16.40;;;15.60;;
1460;SDS011;724;49.910;12.530;2024-01-10T10:15:12;16.05;;;15.25;;
1460;SDS011;724;49.910;12.530;2024-01-10T10:17:40;16.25;;;15.45;;
1460;SDS011;724;49.910;12.530;2024-01-10T10:20:11;16.50;;;15.70;;
1460;SDS011;724;49.910;12.530;2024-01-10T10:22:40;16.50;;;15.70;;
1460;SDS011;724;49.910;12.530;2024-01-10T10:25:17;16.50;;;15.70;;
1460;SDS011;724;49.910;12.530;2024-01-10T10:27:44;16.90;;;16.00;;
1460;SDS011;724;49.910;12.530;2024-01-10T10:30:11;16.70;;;15.90;;
1460;SDS011;724;49.910;12.530;2024-01-10T10:32:38;16.40;;;15.60;;
1460;SDS011;724;49.910;12.530;2024-01-10T10:35:05;16.60;;;15.80;;
1460;SDS011;724;49.910;12.530;2024-01-10T10:37:34;16.50;;;15.70;;
1460;SDS011;724;49.910;12.530;2024-01-10T10:40:01;16.38;;;15.57;;
1460;SDS011;724;49.910;12.530;2024-01-10T10:42:29;16.67;;;15.88;;
1460;SDS011;724;49.910;12.530;2024-01-10T10:44:57;16.75;;;15.93;;
1460;SDS011;724;49.910;12.530;2024-01-10T10:47:29;16.60;;;15.80;;
1460;SDS011;724;49.910;12.530;2024-01-10T10:50:02;16.40;;;15.60;;
1460;SDS011;724;49.910;12.530;2024-01-10T10:52:30;16.40;;;15.60;;
1460;SDS011;724;49.910;12.530;2024-01-10T10:54:58;16.20;;;15.40;;
1460;SDS011;724;49.910;12.530;2024-01-10T10:57:25;16.75;;;15.93;;
1460;SDS011;724;49.910;12.530;2024-01-10T10:59:55;16.50;;;15.70;;
1460;SDS011;724;49.910;12.530;2024-01-10T11:02:23;16.50;;;15.70;;
1460;SDS011;724;49.910;12.530;2024-01-10T11:04:50;16.70;;;15.90;;
1460;SDS011;724;49.910;12.530;2024-01-10T11:07:19;16.55;;;15.75;;
1460;SDS011;724;49.910;12.530;2024-01-10T11:09:46;16.90;;;16.00;;
1460;SDS011;724;49.910;12.530;2024-01-10T11:12:18;16.50;;;15.70;;
1460;SDS011;724;49.910;12.530;2024-01-10T11:15:01;16.40;;;15.60;;
1460;SDS011;724;49.910;12.530;2024-01-10T11:18:02;16.20;;;15.40;;
1460;SDS011;724;49.910;12.530;2024-01-10T11:20:44;16.10;;;15.30;;
1460;SDS011;724;49.910;12.530;2024-01-10T11:26:07;16.30;;;15.50;;
1460;SDS011;724;49.910;12.530;2024-01-10T11:28:35;16.58;;;15.77;;
1460;SDS011;724;49.910;12.530;2024-01-10T11:31:05;16.52;;;15.73;;
1460;SDS011;724;49.910;12.530;2024-01-10T11:33:32;16.50;;;15.70;;
1460;SDS011;724;49.910;12.530;2024-01-10T11:38:51;16.00;;;15.20;;
1460;SDS011;724;49.910;12.530;2024-01-10T11:41:22;16.10;;;15.30;;
1460;SDS011;724;49.910;12.530;2024-01-10T11:47:03;16.50;;;15.70;;
1460;SDS011;724;49.910;12.530;2024-01-10T11:49:30;16.45;;;15.65;;
1460;SDS011;724;49.910;12.530;2024-01-10T11:51:57;16.00;;;15.20;;
1460;SDS011;724;49.910;12.530;2024-01-10T11:54:35;16.50;;;15.70;;
1460;SDS011;724;49.910;12.530;2024-01-10T11:57:13;16.70;;;15.90;;
1460;SDS011;724;49.910;12.530;2024-01-10T11:59:41;16.60;;;15.80;;
1460;SDS011;724;49.910;12.530;2024-01-10T12:02:11;16.25;;;15.45;;
1460;SDS011;724;49.910;12.530;2024-01-10T12:04:39;16.98;;;16.08;;
1460;SDS011;724;49.910;12.530;2024-01-10T12:07:07;16.30;;;15.50;;
1460;SDS011;724;49.910;12.530;2024-01-10T12:09:34;16.58;;;15.77;;
1460;SDS011;724;49.910;12.530;2024-01-10T12:12:01;16.50;;;15.70;;
1460;SDS011;724;49.910;12.530;2024-01-10T12:14:28;16.40;;;15.60;;
1460;SDS011;724;49.910;12.530;2024-01-10T12:16:55;16.10;;;15.30;;
1460;SDS011;724;49.910;12.530;2024-01-10T12:19:24;16.17;;;15.38;;
1460;SDS011;724;49.910;12.530;2024-01-10T12:21:51;16.50;;;15.70;;
1460;SDS011;724;49.910;12.530;2024-01-10T12:24:18;16.50;;;15.70;;
1460;SDS011;724;49.910;12.530;2024-01-10T12:26:46;16.35;;;15.55;;
1460;SDS011;724;49.910;12.530;2024-01-10T12:29:16;16.30;;;15.50;;
1460;SDS011;724;49.910;12.530;2024-01-10T12:31:45;16.70;;;15.90;;
1460;SDS011;724;49.910;12.530;2024-01-10T12:34:12;15.93;;;15.13;;
1460;SDS011;724;49.910;12.530;2024-01-10T12:36:40;16.65;;;15.85;;
1460;SDS011;724;49.910;12.530;2024-01-10T12:39:07;16.05;;;15.25;;
1460;SDS011;724;49.910;12.530;2024-01-10T12:41:34;15.70;;;14.90;;
1460;SDS011;724;49.910;12.530;2024-01-10T12:44:02;15.90;;;15.10;;
1460;SDS011;724;49.910;12.530;2024-01-10T12:46:31;16.10;;;15.30;;
1460;SDS011;724;49.910;12.530;2024-01-10T12:48:59;15.70;;;14.90;;
1460;SDS011;724;49.910;12.530;2024-01-10T12:51:26;15.55;;;14.75;;
1460;SDS011;724;49.910;12.530;2024-01-10T12:53:55;15.25;;;14.45;;
1460;SDS011;724;49.910;12.530;2024-01-10T12:56:24;15.45;;;14.65;;
1460;SDS011;724;49.910;12.530;2024-01-10T12:58:51;15.40;;;14.60;;
1460;SDS011;724;49.910;12.530;2024-01-10T13:01:18;15.73;;;14.93;;
1460;SDS011;724;49.910;12.530;2024-01-10T13:03:45;15.10;;;14.30;;
1460;SDS011;724;49.910;12.530;2024-01-10T13:06:13;15.40;;;14.60;;
1460;SDS011;724;49.910;12.530;2024-01-10T13:08:40;14.90;;;14.10;;
1460;SDS011;724;49.910;12.530;2024-01-10T13:11:09;15.95;;;15.15;;
1460;SDS011;724;49.910;12.530;2024-01-10T13:13:36;15.25;;;14.45;;
1460;SDS011;724;49.910;12.530;2024-01-10T13:16:04;15.32;;;14.52;;
1460;SDS011;724;49.910;12.530;2024-01-10T13:18:31;15.40;;;14.60;;
1460;SDS011;724;49.910;12.530;2024-01-10T13:20:58;15.20;;;14.40;;
1460;SDS011;724;49.910;12.530;2024-01-10T13:23:25;15.68;;;14.88;;
1460;SDS011;724;49.910;12.530;2024-01-10T13:25:52;15.65;;;14.85;;
1460;SDS011;724;49.910;12.530;2024-01-10T13:28:20;15.25;;;14.45;;
1460;SDS011;724;49.910;12.530;2024-01-10T13:30:47;14.68;;;13.93;;
1460;SDS011;724;49.910;12.530;2024-01-10T13:33:15;15.10;;;14.30;;
1460;SDS011;724;49.910;12.530;2024-01-10T13:35:43;15.10;;;14.30;;
1460;SDS011;724;49.910;12.530;2024-01-10T13:38:10;15.43;;;14.63;;
1460;SDS011;724;49.910;12.530;2024-01-10T13:40:37;15.20;;;14.40;;
1460;SDS011;724;49.910;12.530;2024-01-10T13:43:04;15.85;;;15.05;;
1460;SDS011;724;49.910;12.530;2024-01-10T13:45:32;15.80;;;15.00;;
1460;SDS011;724;49.910;12.530;2024-01-10T13:47:59;15.27;;;14.48;;
1460;SDS011;724;49.910;12.530;2024-01-10T13:50:27;15.18;;;14.38;;
1460;SDS011;724;49.910;12.530;2024-01-10T13:52:55;15.52;;;14.73;;
1460;SDS011;724;49.910;12.530;2024-01-10T13:55:21;14.80;;;14.00;;
1460;SDS011;724;49.910;12.530;2024-01-10T13:57:49;15.43;;;14.63;;
1460;SDS011;724;49.910;12.530;2024-01-10T14:00:18;15.05;;;14.25;;
1460;SDS011;724;49.910;12.530;2024-01-10T14:02:47;15.50;;;14.70;;
1460;SDS011;724;49.910;12.530;2024-01-10T14:05:14;15.20;;;14.40;;
1460;SDS011;724;49.910;12.530;2024-01-10T14:07:41;15.18;;;14.38;;
1460;SDS011;724;49.910;12.530;2024-01-10T14:10:09;14.85;;;14.05;;
1460;SDS011;724;49.910;12.530;2024-01-10T14:12:38;14.93;;;14.13;;
1460;SDS011;724;49.910;12.530;2024-01-10T14:15:05;14.60;;;13.90;;
1460;SDS011;724;49.910;12.530;2024-01-10T14:17:32;15.00;;;14.20;;
1460;SDS011;724;49.910;12.530;2024-01-10T14:20:00;14.90;;;14.10;;
1460;SDS011;724;49.910;12.530;2024-01-10T14:22:28;14.85;;;14.05;;
1460;SDS011;724;49.910;12.530;2024-01-10T14:24:55;14.85;;;14.05;;
1460;SDS011;724;49.910;12.530;2024-01-10T14:27:22;15.20;;;14.40;;
1460;SDS011;724;49.910;12.530;2024-01-10T14:29:49;14.40;;;13.70;;
1460;SDS011;724;49.910;12.530;2024-01-10T14:32:16;15.57;;;14.77;;
1460;SDS011;724;49.910;12.530;2024-01-10T14:34:43;15.25;;;14.45;;
1460;SDS011;724;49.910;12.530;2024-01-10T14:37:12;14.50;;;13.80;;
1460;SDS011;724;49.910;12.530;2024-01-10T14:39:39;14.95;;;14.15;;
1460;SDS011;724;49.910;12.530;2024-01-10T14:42:06;15.00;;;14.20;;
1460;SDS011;724;49.910;12.530;2024-01-10T14:44:38;15.00;;;14.20;;
1460;SDS011;724;49.910;12.530;2024-01-10T14:47:05;14.80;;;14.00;;
1460;SDS011;724;49.910;12.530;2024-01-10T14:49:32;14.50;;;13.80;;
1460;SDS011;724;49.910;12.530;2024-01-10T14:51:59;14.85;;;14.05;;
1460;SDS011;724;49.910;12.530;2024-01-10T14:54:28;14.25;;;13.55;;
1460;SDS011;724;49.910;12.530;2024-01-10T14:56:55;14.30;;;13.60;;
1460;SDS011;724;49.910;12.530;2024-01-10T14:59:22;14.82;;;14.02;;